createdAt,value
2018-09-11T00:00:28.146Z,0
2018-09-11T00:01:29.533Z,0
2018-09-11T00:02:43.356Z,0
2018-09-11T00:03:44.759Z,0
2018-09-11T00:04:46.142Z,0
2018-09-11T00:05:47.549Z,0
2018-09-11T00:06:48.920Z,0
2018-09-11T00:07:50.318Z,0
2018-09-11T00:08:51.700Z,0
2018-09-11T00:09:53.089Z,0
2018-09-11T00:10:54.486Z,0
2018-09-11T00:11:55.862Z,0
2018-09-11T00:12:57.262Z,0
2018-09-11T00:13:58.641Z,0
2018-09-11T00:15:00.038Z,0
2018-09-11T00:16:01.433Z,0
2018-09-11T00:17:02.828Z,0
2018-09-11T00:18:04.207Z,0
2018-09-11T00:19:05.600Z,0
2018-09-11T00:20:06.992Z,0
2018-09-11T00:21:08.386Z,0
2018-09-11T00:22:09.770Z,0
2018-09-11T00:23:11.158Z,0
2018-09-11T00:24:12.538Z,0
2018-09-11T00:25:15.155Z,0
2018-09-11T00:26:16.532Z,0
2018-09-11T00:27:17.920Z,0
2018-09-11T00:28:19.338Z,0
2018-09-11T00:29:20.732Z,0
2018-09-11T00:30:22.131Z,0
2018-09-11T00:31:23.513Z,0
2018-09-11T00:32:24.887Z,0
2018-09-11T00:33:26.289Z,0
2018-09-11T00:34:27.675Z,0
2018-09-11T00:35:29.054Z,0
2018-09-11T00:36:30.472Z,0
2018-09-11T00:37:31.848Z,0
2018-09-11T00:38:33.266Z,0
2018-09-11T00:39:34.668Z,0
2018-09-11T00:40:36.585Z,0
2018-09-11T00:41:37.988Z,0
2018-09-11T00:42:39.381Z,0
2018-09-11T00:43:40.778Z,0
2018-09-11T00:44:42.181Z,0
2018-09-11T00:45:43.577Z,0
2018-09-11T00:46:44.979Z,0
2018-09-11T00:47:46.376Z,0
2018-09-11T00:48:47.763Z,0
2018-09-11T00:49:49.148Z,0
2018-09-11T00:50:50.542Z,0
2018-09-11T00:51:51.954Z,0
2018-09-11T00:52:53.349Z,0
2018-09-11T00:53:54.757Z,0
2018-09-11T00:54:56.141Z,0
2018-09-11T00:55:58.359Z,0
2018-09-11T00:56:59.778Z,0
2018-09-11T00:58:01.181Z,0
2018-09-11T00:59:02.565Z,0
2018-09-11T01:00:03.958Z,0
2018-09-11T01:01:05.345Z,0
2018-09-11T01:02:06.728Z,0
2018-09-11T01:03:08.120Z,0
2018-09-11T01:04:09.528Z,0
2018-09-11T01:05:10.945Z,0
2018-09-11T01:06:12.341Z,0
2018-09-11T01:07:13.744Z,0
2018-09-11T01:08:15.164Z,0
2018-09-11T01:09:16.557Z,0
2018-09-11T01:10:18.042Z,0
2018-09-11T01:11:19.290Z,0
2018-09-11T01:12:21.385Z,0
2018-09-11T01:13:22.782Z,0
2018-09-11T01:14:24.171Z,0
2018-09-11T01:15:25.559Z,0
2018-09-11T01:16:26.957Z,0
2018-09-11T01:17:28.351Z,0
2018-09-11T01:18:29.752Z,0
2018-09-11T01:19:31.146Z,0
2018-09-11T01:20:32.562Z,0
2018-09-11T01:21:33.970Z,0
2018-09-11T01:22:35.360Z,0
2018-09-11T01:23:36.772Z,0
2018-09-11T01:24:38.184Z,0
2018-09-11T01:25:39.584Z,0
2018-09-11T01:26:41.000Z,0
2018-09-11T01:27:42.419Z,0
2018-09-11T01:28:43.816Z,0
2018-09-11T01:29:45.294Z,0
2018-09-11T01:30:46.684Z,0
2018-09-11T01:31:48.100Z,0
2018-09-11T01:32:49.495Z,0
2018-09-11T01:33:51.034Z,0
2018-09-11T01:34:52.408Z,0
2018-09-11T01:35:53.831Z,0
2018-09-11T01:36:55.256Z,0
2018-09-11T01:37:56.741Z,0
2018-09-11T01:38:58.151Z,0
2018-09-11T01:39:59.524Z,0
2018-09-11T01:41:00.951Z,0
2018-09-11T01:42:02.333Z,0
2018-09-11T01:43:03.735Z,0
2018-09-11T01:44:05.117Z,0
2018-09-11T01:45:06.514Z,0
2018-09-11T01:46:07.892Z,0
2018-09-11T01:47:09.310Z,0
2018-09-11T01:48:10.706Z,0
2018-09-11T01:49:12.084Z,0
2018-09-11T01:50:13.487Z,0
2018-09-11T01:51:14.869Z,0
2018-09-11T01:52:16.254Z,0
2018-09-11T01:53:17.664Z,0
2018-09-11T01:54:19.046Z,0
2018-09-11T01:55:20.442Z,0
2018-09-11T01:56:21.834Z,0
2018-09-11T01:57:23.212Z,0
2018-09-11T01:58:24.619Z,0
2018-09-11T01:59:26.698Z,0
2018-09-11T02:00:27.341Z,0
2018-09-11T02:01:28.745Z,0
2018-09-11T02:02:30.149Z,0
2018-09-11T02:03:31.542Z,0
2018-09-11T02:04:32.923Z,0
2018-09-11T02:05:34.328Z,0
2018-09-11T02:06:35.738Z,0
2018-09-11T02:07:37.122Z,0
2018-09-11T02:08:38.518Z,0
2018-09-11T02:09:39.933Z,0
2018-09-11T02:10:41.302Z,0
2018-09-11T02:11:42.698Z,0
2018-09-11T02:12:44.085Z,0
2018-09-11T02:13:45.487Z,0
2018-09-11T02:14:46.876Z,0
2018-09-11T02:15:49.046Z,0
2018-09-11T02:16:50.426Z,0
2018-09-11T02:17:51.828Z,0
2018-09-11T02:18:53.218Z,0
2018-09-11T02:19:54.602Z,0
2018-09-11T02:20:55.988Z,0
2018-09-11T02:21:57.382Z,0
2018-09-11T02:22:58.783Z,0
2018-09-11T02:24:00.184Z,0
2018-09-11T02:25:01.557Z,0
2018-09-11T02:26:02.944Z,0
2018-09-11T02:27:04.348Z,0
2018-09-11T02:28:05.750Z,0
2018-09-11T02:29:07.116Z,0
2018-09-11T02:30:08.519Z,0
2018-09-11T02:31:10.711Z,0
2018-09-11T02:32:11.265Z,0
2018-09-11T02:33:12.659Z,0
2018-09-11T02:34:14.060Z,0
2018-09-11T02:35:15.449Z,0
2018-09-11T02:36:16.839Z,0
2018-09-11T02:37:18.244Z,0
2018-09-11T02:38:19.642Z,0
2018-09-11T02:39:21.038Z,0
2018-09-11T02:40:22.434Z,0
2018-09-11T02:41:23.832Z,0
2018-09-11T02:42:25.226Z,0
2018-09-11T02:43:26.632Z,0
2018-09-11T02:44:28.001Z,0
2018-09-11T02:45:29.406Z,0
2018-09-11T02:46:30.803Z,0
2018-09-11T02:47:32.191Z,0
2018-09-11T02:48:33.590Z,0
2018-09-11T02:49:34.978Z,0
2018-09-11T02:50:36.363Z,0
2018-09-11T02:51:37.767Z,0
2018-09-11T02:52:39.170Z,0
2018-09-11T02:53:40.574Z,0
2018-09-11T02:54:41.971Z,0
2018-09-11T02:55:43.359Z,0
2018-09-11T02:56:44.746Z,0
2018-09-11T02:57:46.140Z,0
2018-09-11T02:58:47.522Z,0
2018-09-11T02:59:48.926Z,0
2018-09-11T03:00:50.331Z,0
2018-09-11T03:01:51.729Z,0
2018-09-11T03:02:53.122Z,0
2018-09-11T03:03:55.107Z,0
2018-09-11T03:04:56.486Z,0
2018-09-11T03:05:57.883Z,0
2018-09-11T03:06:59.275Z,0
2018-09-11T03:08:00.685Z,0
2018-09-11T03:09:02.071Z,0
2018-09-11T03:10:03.467Z,0
2018-09-11T03:11:04.857Z,0
2018-09-11T03:12:06.246Z,0
2018-09-11T03:13:07.640Z,0
2018-09-11T03:14:09.041Z,0
2018-09-11T03:15:10.422Z,0
2018-09-11T03:16:11.804Z,0
2018-09-11T03:17:13.220Z,0
2018-09-11T03:18:14.602Z,0
2018-09-11T03:19:16.011Z,0
2018-09-11T03:20:17.392Z,0
2018-09-11T03:21:18.786Z,0
2018-09-11T03:22:20.184Z,0
2018-09-11T03:23:21.580Z,0
2018-09-11T03:24:22.969Z,0
2018-09-11T03:25:24.362Z,0
2018-09-11T03:26:25.762Z,0
2018-09-11T03:27:27.149Z,0
2018-09-11T03:28:28.558Z,0
2018-09-11T03:29:29.966Z,0
2018-09-11T03:30:31.343Z,0
2018-09-11T03:31:32.744Z,0
2018-09-11T03:32:34.152Z,0
2018-09-11T03:33:35.538Z,0
2018-09-11T03:34:36.933Z,0
2018-09-11T03:35:38.350Z,0
2018-09-11T03:36:39.714Z,0
2018-09-11T03:37:41.117Z,0
2018-09-11T03:38:42.502Z,0
2018-09-11T03:39:43.884Z,0
2018-09-11T03:40:45.258Z,0
2018-09-11T03:41:46.668Z,0
2018-09-11T03:42:48.054Z,0
2018-09-11T03:43:49.429Z,0
2018-09-11T03:44:50.814Z,0
2018-09-11T03:45:52.198Z,0
2018-09-11T03:46:53.589Z,0
2018-09-11T03:47:54.980Z,0
2018-09-11T03:48:56.358Z,0
2018-09-11T03:49:57.752Z,0
2018-09-11T03:50:59.791Z,0
2018-09-11T03:52:01.171Z,0
2018-09-11T03:53:02.584Z,0
2018-09-11T03:54:03.965Z,0
2018-09-11T03:55:05.369Z,0
2018-09-11T03:56:06.749Z,0
2018-09-11T03:57:08.132Z,0
2018-09-11T03:58:09.512Z,0
2018-09-11T03:59:10.953Z,0
2018-09-11T04:00:12.276Z,0
2018-09-11T04:01:13.662Z,0
2018-09-11T04:02:15.068Z,0
2018-09-11T04:03:16.474Z,0
2018-09-11T04:04:17.857Z,0
2018-09-11T04:05:19.266Z,0
2018-09-11T04:06:20.642Z,0
2018-09-11T04:07:22.873Z,0
2018-09-11T04:08:24.254Z,0
2018-09-11T04:09:25.628Z,0
2018-09-11T04:10:27.016Z,0
2018-09-11T04:11:28.398Z,0
2018-09-11T04:12:29.798Z,0
2018-09-11T04:13:31.189Z,0
2018-09-11T04:14:32.576Z,0
2018-09-11T04:15:33.975Z,0
2018-09-11T04:16:35.361Z,0
2018-09-11T04:17:36.762Z,0
2018-09-11T04:18:38.144Z,0
2018-09-11T04:19:39.541Z,0
2018-09-11T04:20:40.927Z,0
2018-09-11T04:21:42.311Z,4
2018-09-11T04:22:43.698Z,4
2018-09-11T04:23:45.093Z,4
2018-09-11T04:24:46.473Z,0
2018-09-11T04:25:47.947Z,4
2018-09-11T04:26:49.238Z,4
2018-09-11T04:27:50.623Z,4
2018-09-11T04:28:52.001Z,4
2018-09-11T04:29:53.394Z,4
2018-09-11T04:30:54.783Z,4
2018-09-11T04:31:56.163Z,4
2018-09-11T04:32:57.560Z,4
2018-09-11T04:33:58.962Z,4
2018-09-11T04:35:00.337Z,4
2018-09-11T04:36:01.734Z,4
2018-09-11T04:37:03.114Z,8
2018-09-11T04:38:04.498Z,12
2018-09-11T04:39:05.894Z,16
2018-09-11T04:40:07.275Z,20
2018-09-11T04:41:08.656Z,24
2018-09-11T04:42:10.052Z,24
2018-09-11T04:43:11.483Z,24
2018-09-11T04:44:12.842Z,24
2018-09-11T04:45:14.220Z,24
2018-09-11T04:46:15.631Z,24
2018-09-11T04:47:17.014Z,28
2018-09-11T04:48:18.425Z,28
2018-09-11T04:49:19.824Z,36
2018-09-11T04:50:21.219Z,36
2018-09-11T04:51:22.632Z,40
2018-09-11T04:52:24.045Z,44
2018-09-11T04:53:25.447Z,48
2018-09-11T04:54:26.837Z,56
2018-09-11T04:55:28.219Z,60
2018-09-11T04:56:29.647Z,64
2018-09-11T04:57:31.059Z,68
2018-09-11T04:58:32.449Z,72
2018-09-11T04:59:33.852Z,76
2018-09-11T05:00:35.245Z,80
2018-09-11T05:01:36.657Z,84
2018-09-11T05:02:38.037Z,88
2018-09-11T05:03:39.476Z,80
2018-09-11T05:04:40.885Z,80
2018-09-11T05:05:42.270Z,72
2018-09-11T05:06:43.666Z,72
2018-09-11T05:07:45.057Z,72
2018-09-11T05:08:46.500Z,72
2018-09-11T05:09:47.896Z,68
2018-09-11T05:10:49.282Z,68
2018-09-11T05:11:50.670Z,72
2018-09-11T05:12:52.086Z,64
2018-09-11T05:13:56.624Z,60
2018-09-11T05:14:58.043Z,76
2018-09-11T05:15:59.479Z,68
2018-09-11T05:17:00.907Z,72
2018-09-11T05:18:02.299Z,72
2018-09-11T05:19:03.767Z,80
2018-09-11T05:20:05.089Z,84
2018-09-11T05:21:06.481Z,84
2018-09-11T05:22:07.928Z,88
2018-09-11T05:23:09.332Z,84
2018-09-11T05:24:10.699Z,92
2018-09-11T05:25:12.102Z,92
2018-09-11T05:26:13.489Z,96
2018-09-11T05:27:14.878Z,100
2018-09-11T05:28:16.345Z,88
2018-09-11T05:29:17.746Z,88
2018-09-11T05:30:19.130Z,112
2018-09-11T05:31:20.540Z,104
2018-09-11T05:32:21.927Z,120
2018-09-11T05:33:23.318Z,124
2018-09-11T05:34:24.697Z,128
2018-09-11T05:35:26.091Z,116
2018-09-11T05:36:27.491Z,104
2018-09-11T05:37:28.899Z,92
2018-09-11T05:38:30.298Z,80
2018-09-11T05:39:31.699Z,72
2018-09-11T05:40:33.095Z,92
2018-09-11T05:41:34.472Z,104
2018-09-11T05:42:35.872Z,120
2018-09-11T05:43:37.256Z,128
2018-09-11T05:44:38.649Z,148
2018-09-11T05:45:40.045Z,188
2018-09-11T05:46:43.595Z,196
2018-09-11T05:47:45.015Z,188
2018-09-11T05:48:46.436Z,172
2018-09-11T05:49:47.809Z,184
2018-09-11T05:50:49.220Z,188
2018-09-11T05:51:50.615Z,172
2018-09-11T05:52:52.019Z,180
2018-09-11T05:53:53.407Z,184
2018-09-11T05:54:54.881Z,200
2018-09-11T05:55:56.288Z,220
2018-09-11T05:56:57.677Z,240
2018-09-11T05:57:59.850Z,260
2018-09-11T05:59:01.245Z,280
2018-09-11T06:00:02.634Z,276
2018-09-11T06:01:04.029Z,264
2018-09-11T06:02:05.402Z,292
2018-09-11T06:03:06.800Z,272
2018-09-11T06:04:08.209Z,284
2018-09-11T06:05:09.594Z,248
2018-09-11T06:06:10.984Z,256
2018-09-11T06:07:12.506Z,236
2018-09-11T06:08:13.961Z,212
2018-09-11T06:09:15.316Z,192
2018-09-11T06:10:16.718Z,204
2018-09-11T06:11:18.114Z,224
2018-09-11T06:12:19.589Z,240
2018-09-11T06:13:20.962Z,232
2018-09-11T06:14:23.306Z,208
2018-09-11T06:15:24.699Z,208
2018-09-11T06:16:26.099Z,200
2018-09-11T06:17:27.478Z,216
2018-09-11T06:18:28.888Z,220
2018-09-11T06:19:30.288Z,272
2018-09-11T06:20:31.677Z,304
2018-09-11T06:21:33.068Z,328
2018-09-11T06:22:34.464Z,332
2018-09-11T06:23:35.906Z,332
2018-09-11T06:24:37.301Z,336
2018-09-11T06:25:40.185Z,328
2018-09-11T06:26:41.669Z,308
2018-09-11T06:27:43.052Z,300
2018-09-11T06:28:44.453Z,292
2018-09-11T06:29:45.847Z,300
2018-09-11T06:30:47.265Z,300
2018-09-11T06:31:48.684Z,304
2018-09-11T06:32:50.069Z,296
2018-09-11T06:33:51.502Z,296
2018-09-11T06:34:52.898Z,292
2018-09-11T06:35:54.352Z,296
2018-09-11T06:36:55.788Z,300
2018-09-11T06:37:57.130Z,300
2018-09-11T06:38:58.528Z,300
2018-09-11T06:39:59.911Z,308
2018-09-11T06:41:01.379Z,308
2018-09-11T06:42:02.736Z,336
2018-09-11T06:43:04.131Z,360
2018-09-11T06:44:05.531Z,408
2018-09-11T06:45:07.267Z,436
2018-09-11T06:46:10.097Z,452
2018-09-11T06:47:11.551Z,440
2018-09-11T06:48:13.398Z,400
2018-09-11T06:49:14.834Z,348
2018-09-11T06:50:16.235Z,308
2018-09-11T06:51:18.050Z,280
2018-09-11T06:52:19.413Z,248
2018-09-11T06:53:20.806Z,272
2018-09-11T06:54:22.188Z,300
2018-09-11T06:55:23.575Z,328
2018-09-11T06:56:24.979Z,368
2018-09-11T06:57:26.366Z,376
2018-09-11T06:58:27.833Z,372
2018-09-11T06:59:29.288Z,372
2018-09-11T07:00:30.930Z,364
2018-09-11T07:01:32.432Z,360
2018-09-11T07:02:33.872Z,316
2018-09-11T07:03:35.266Z,288
2018-09-11T07:04:36.657Z,292
2018-09-11T07:05:38.075Z,292
2018-09-11T07:06:39.531Z,316
2018-09-11T07:07:40.921Z,336
2018-09-11T07:08:42.303Z,356
2018-09-11T07:09:43.745Z,364
2018-09-11T07:10:45.183Z,372
2018-09-11T07:11:46.553Z,388
2018-09-11T07:12:47.949Z,400
2018-09-11T07:13:49.334Z,408
2018-09-11T07:14:50.763Z,412
2018-09-11T07:15:52.117Z,432
2018-09-11T07:16:53.517Z,444
2018-09-11T07:17:54.887Z,452
2018-09-11T07:18:56.367Z,460
2018-09-11T07:19:58.047Z,468
2018-09-11T07:20:59.195Z,452
2018-09-11T07:22:00.589Z,464
2018-09-11T07:23:02.015Z,476
2018-09-11T07:24:03.411Z,504
2018-09-11T07:25:04.799Z,528
2018-09-11T07:26:06.189Z,560
2018-09-11T07:27:07.564Z,572
2018-09-11T07:28:08.966Z,592
2018-09-11T07:29:10.355Z,636
2018-09-11T07:30:11.746Z,660
2018-09-11T07:31:13.132Z,660
2018-09-11T07:32:14.581Z,660
2018-09-11T07:33:15.909Z,668
2018-09-11T07:34:17.304Z,672
2018-09-11T07:35:18.692Z,664
2018-09-11T07:36:20.145Z,668
2018-09-11T07:37:21.670Z,672
2018-09-11T07:38:23.056Z,688
2018-09-11T07:39:24.453Z,688
2018-09-11T07:40:25.841Z,688
2018-09-11T07:41:27.239Z,716
2018-09-11T07:42:28.636Z,768
2018-09-11T07:43:30.022Z,820
2018-09-11T07:44:31.429Z,868
2018-09-11T07:45:32.841Z,892
2018-09-11T07:46:34.235Z,896
2018-09-11T07:47:35.644Z,860
2018-09-11T07:48:37.061Z,804
2018-09-11T07:49:39.317Z,752
2018-09-11T07:50:39.832Z,716
2018-09-11T07:51:41.239Z,708
2018-09-11T07:52:42.757Z,708
2018-09-11T07:53:44.068Z,720
2018-09-11T07:54:45.538Z,760
2018-09-11T07:55:46.929Z,804
2018-09-11T07:56:48.320Z,828
2018-09-11T07:57:49.718Z,820
2018-09-11T07:58:51.111Z,808
2018-09-11T07:59:52.492Z,836
2018-09-11T08:00:53.895Z,908
2018-09-11T08:01:55.312Z,952
2018-09-11T08:02:56.768Z,972
2018-09-11T08:03:58.141Z,980
2018-09-11T08:04:59.588Z,940
2018-09-11T08:06:00.985Z,948
2018-09-11T08:07:02.369Z,988
2018-09-11T08:08:03.896Z,1024
2018-09-11T08:09:05.286Z,1056
2018-09-11T08:10:06.711Z,1064
2018-09-11T08:11:08.116Z,1068
2018-09-11T08:12:09.520Z,1008
2018-09-11T08:13:10.956Z,984
2018-09-11T08:14:12.341Z,1072
2018-09-11T08:15:13.737Z,1124
2018-09-11T08:16:15.147Z,1104
2018-09-11T08:17:16.533Z,1092
2018-09-11T08:18:17.997Z,1084
2018-09-11T08:19:19.365Z,1044
2018-09-11T08:20:20.769Z,936
2018-09-11T08:21:22.154Z,860
2018-09-11T08:22:23.546Z,864
2018-09-11T08:23:24.930Z,964
2018-09-11T08:24:26.317Z,1040
2018-09-11T08:25:27.710Z,1164
2018-09-11T08:26:29.101Z,1248
2018-09-11T08:27:30.501Z,1224
2018-09-11T08:28:31.897Z,1248
2018-09-11T08:29:33.291Z,1264
2018-09-11T08:30:34.683Z,1328
2018-09-11T08:31:36.078Z,1344
2018-09-11T08:32:37.557Z,1456
2018-09-11T08:33:38.937Z,1572
2018-09-11T08:34:40.324Z,1732
2018-09-11T08:35:41.713Z,1600
2018-09-11T08:36:43.107Z,1656
2018-09-11T08:37:44.497Z,1700
2018-09-11T08:38:45.890Z,1716
2018-09-11T08:39:47.286Z,1744
2018-09-11T08:40:48.673Z,1836
2018-09-11T08:41:50.060Z,1868
2018-09-11T08:42:51.470Z,1848
2018-09-11T08:43:52.884Z,1860
2018-09-11T08:44:54.258Z,1816
2018-09-11T08:45:55.650Z,1856
2018-09-11T08:46:57.044Z,1788
2018-09-11T08:47:58.446Z,1832
2018-09-11T08:48:59.833Z,1976
2018-09-11T08:50:01.230Z,1928
2018-09-11T08:51:02.622Z,1820
2018-09-11T08:52:04.027Z,1804
2018-09-11T08:53:05.402Z,1848
2018-09-11T08:54:07.388Z,1928
2018-09-11T08:55:08.779Z,2020
2018-09-11T08:56:10.181Z,2004
2018-09-11T08:57:11.578Z,1992
2018-09-11T08:58:12.963Z,1952
2018-09-11T08:59:14.355Z,1896
2018-09-11T09:00:15.802Z,1896
2018-09-11T09:01:17.193Z,1976
2018-09-11T09:02:18.610Z,1996
2018-09-11T09:03:20.020Z,1856
2018-09-11T09:04:21.418Z,1988
2018-09-11T09:05:22.814Z,2088
2018-09-11T09:06:24.209Z,1880
2018-09-11T09:07:25.622Z,1936
2018-09-11T09:08:27.016Z,1768
2018-09-11T09:09:28.402Z,1964
2018-09-11T09:10:29.795Z,2040
2018-09-11T09:11:31.181Z,2004
2018-09-11T09:12:32.589Z,2092
2018-09-11T09:13:33.972Z,2004
2018-09-11T09:14:35.375Z,2100
2018-09-11T09:15:36.777Z,2020
2018-09-11T09:16:38.183Z,2240
2018-09-11T09:17:39.586Z,2080
2018-09-11T09:18:41.044Z,2260
2018-09-11T09:19:42.456Z,2268
2018-09-11T09:20:43.885Z,2196
2018-09-11T09:21:45.257Z,2392
2018-09-11T09:22:46.667Z,2180
2018-09-11T09:23:48.067Z,2184
2018-09-11T09:24:49.486Z,2416
2018-09-11T09:25:50.877Z,2360
2018-09-11T09:26:52.268Z,2684
2018-09-11T09:27:53.659Z,2836
2018-09-11T09:28:55.923Z,2960
2018-09-11T09:29:57.338Z,2620
2018-09-11T09:30:58.722Z,2412
2018-09-11T09:32:00.113Z,2408
2018-09-11T09:33:01.516Z,2328
2018-09-11T09:34:02.921Z,2352
2018-09-11T09:35:04.356Z,2184
2018-09-11T09:36:05.790Z,1836
2018-09-11T09:37:07.296Z,1628
2018-09-11T09:38:08.541Z,1520
2018-09-11T09:39:09.944Z,1900
2018-09-11T09:40:11.329Z,2060
2018-09-11T09:41:12.732Z,2464
2018-09-11T09:42:14.184Z,2668
2018-09-11T09:43:15.579Z,2680
2018-09-11T09:44:16.984Z,2776
2018-09-11T09:45:18.377Z,3200
2018-09-11T09:46:19.766Z,2660
2018-09-11T09:47:21.156Z,2448
2018-09-11T09:48:22.550Z,2412
2018-09-11T09:49:23.946Z,2768
2018-09-11T09:50:25.330Z,2644
2018-09-11T09:51:26.731Z,2600
2018-09-11T09:52:28.128Z,2580
2018-09-11T09:53:29.520Z,2852
2018-09-11T09:54:30.915Z,2568
2018-09-11T09:55:32.311Z,2516
2018-09-11T09:56:33.734Z,2656
2018-09-11T09:57:35.127Z,2504
2018-09-11T09:58:36.526Z,2268
2018-09-11T09:59:37.914Z,2248
2018-09-11T10:00:39.309Z,2324
2018-09-11T10:01:40.707Z,2264
2018-09-11T10:02:42.124Z,2124
2018-09-11T10:03:43.524Z,2172
2018-09-11T10:04:44.977Z,1872
2018-09-11T10:05:46.313Z,1812
2018-09-11T10:06:47.719Z,1720
2018-09-11T10:07:49.113Z,1888
2018-09-11T10:08:50.503Z,2004
2018-09-11T10:09:51.905Z,2264
2018-09-11T10:10:53.293Z,2340
2018-09-11T10:11:54.797Z,2300
2018-09-11T10:12:56.048Z,2340
2018-09-11T10:13:57.436Z,2176
2018-09-11T10:14:58.852Z,1792
2018-09-11T10:16:00.249Z,1824
2018-09-11T10:17:01.648Z,1908
2018-09-11T10:18:03.042Z,1816
2018-09-11T10:19:04.453Z,1904
2018-09-11T10:20:05.916Z,1908
2018-09-11T10:21:07.308Z,1888
2018-09-11T10:22:08.695Z,1656
2018-09-11T10:23:10.098Z,1760
2018-09-11T10:24:11.479Z,1748
2018-09-11T10:25:12.915Z,1944
2018-09-11T10:26:14.314Z,1900
2018-09-11T10:27:15.702Z,2196
2018-09-11T10:28:17.105Z,2256
2018-09-11T10:29:18.501Z,2136
2018-09-11T10:30:19.897Z,2256
2018-09-11T10:31:21.293Z,2152
2018-09-11T10:32:22.687Z,1840
2018-09-11T10:33:24.144Z,1752
2018-09-11T10:34:25.531Z,1784
2018-09-11T10:35:26.923Z,1984
2018-09-11T10:36:28.328Z,1968
2018-09-11T10:37:29.715Z,1892
2018-09-11T10:38:31.106Z,2080
2018-09-11T10:39:32.599Z,2248
2018-09-11T10:40:33.917Z,2564
2018-09-11T10:41:35.293Z,2376
2018-09-11T10:42:36.694Z,2428
2018-09-11T10:43:38.089Z,2824
2018-09-11T10:44:39.479Z,2488
2018-09-11T10:45:40.874Z,2360
2018-09-11T10:46:42.315Z,2240
2018-09-11T10:47:43.880Z,1708
2018-09-11T10:48:45.336Z,1888
2018-09-11T10:49:46.679Z,2376
2018-09-11T10:50:48.064Z,2092
2018-09-11T10:51:49.529Z,2376
2018-09-11T10:52:50.812Z,2268
2018-09-11T10:53:52.224Z,2000
2018-09-11T10:54:53.613Z,1884
2018-09-11T10:55:55.010Z,2112
2018-09-11T10:56:56.405Z,2260
2018-09-11T10:57:57.789Z,2340
2018-09-11T10:58:59.191Z,2296
2018-09-11T11:00:00.582Z,2568
2018-09-11T11:01:02.040Z,2600
2018-09-11T11:02:03.474Z,2348
2018-09-11T11:03:04.888Z,2328
2018-09-11T11:04:06.368Z,2232
2018-09-11T11:05:07.885Z,2324
2018-09-11T11:06:09.277Z,2436
2018-09-11T11:07:10.701Z,2328
2018-09-11T11:08:12.117Z,2052
2018-09-11T11:09:13.552Z,1960
2018-09-11T11:10:15.087Z,1896
2018-09-11T11:11:16.480Z,2284
2018-09-11T11:12:17.887Z,2908
2018-09-11T11:13:19.293Z,3148
2018-09-11T11:14:20.730Z,2828
2018-09-11T11:15:22.225Z,2568
2018-09-11T11:16:23.653Z,2528
2018-09-11T11:17:25.637Z,2604
2018-09-11T11:18:27.039Z,2356
2018-09-11T11:19:28.446Z,2296
2018-09-11T11:20:29.833Z,2288
2018-09-11T11:21:31.252Z,2024
2018-09-11T11:22:32.681Z,1844
2018-09-11T11:23:34.164Z,1804
2018-09-11T11:24:35.652Z,1684
2018-09-11T11:25:37.101Z,1716
2018-09-11T11:26:38.591Z,1732
2018-09-11T11:27:39.991Z,1844
2018-09-11T11:28:41.404Z,1780
2018-09-11T11:29:42.810Z,1820
2018-09-11T11:30:44.245Z,1852
2018-09-11T11:31:45.710Z,1548
2018-09-11T11:32:47.142Z,1560
2018-09-11T11:33:48.645Z,1548
2018-09-11T11:34:50.082Z,1552
2018-09-11T11:35:51.494Z,1548
2018-09-11T11:36:53.035Z,1612
2018-09-11T11:37:54.379Z,1632
2018-09-11T11:38:55.861Z,1664
2018-09-11T11:39:57.270Z,1648
2018-09-11T11:40:58.695Z,1856
2018-09-11T11:42:00.162Z,2188
2018-09-11T11:43:01.573Z,2236
2018-09-11T11:44:02.978Z,2820
2018-09-11T11:45:04.459Z,2828
2018-09-11T11:46:05.994Z,2916
2018-09-11T11:47:07.389Z,2684
2018-09-11T11:48:08.880Z,3064
2018-09-11T11:49:10.163Z,2144
2018-09-11T11:50:11.585Z,2120
2018-09-11T11:51:13.022Z,2280
2018-09-11T11:52:14.487Z,2304
2018-09-11T11:53:15.883Z,2120
2018-09-11T11:54:17.280Z,2136
2018-09-11T11:55:18.722Z,2292
2018-09-11T11:56:20.073Z,2436
2018-09-11T11:57:21.482Z,2336
2018-09-11T11:58:22.868Z,1992
2018-09-11T11:59:24.261Z,1780
2018-09-11T12:00:25.660Z,1644
2018-09-11T12:01:27.092Z,1632
2018-09-11T12:02:28.453Z,2648
2018-09-11T12:03:29.850Z,2540
2018-09-11T12:04:31.241Z,2692
2018-09-11T12:05:32.651Z,2716
2018-09-11T12:06:34.039Z,2332
2018-09-11T12:07:35.438Z,2596
2018-09-11T12:08:36.839Z,2700
2018-09-11T12:09:38.249Z,3656
2018-09-11T12:10:39.648Z,3316
2018-09-11T12:11:41.033Z,1160
2018-09-11T12:12:42.436Z,2704
2018-09-11T12:13:43.844Z,3392
2018-09-11T12:14:45.247Z,3152
2018-09-11T12:15:46.630Z,2520
2018-09-11T12:16:48.034Z,2312
2018-09-11T12:17:49.421Z,1800
2018-09-11T12:18:50.821Z,1908
2018-09-11T12:19:52.212Z,1676
2018-09-11T12:20:53.610Z,1500
2018-09-11T12:21:54.994Z,1504
2018-09-11T12:22:56.408Z,1440
2018-09-11T12:23:57.803Z,1604
2018-09-11T12:24:59.204Z,1560
2018-09-11T12:26:00.585Z,1748
2018-09-11T12:27:01.985Z,1356
2018-09-11T12:28:03.384Z,1952
2018-09-11T12:29:04.791Z,2172
2018-09-11T12:30:06.182Z,2796
2018-09-11T12:31:07.630Z,3112
2018-09-11T12:32:08.973Z,2768
2018-09-11T12:33:10.375Z,2344
2018-09-11T12:34:11.771Z,1916
2018-09-11T12:35:13.184Z,2472
2018-09-11T12:36:14.560Z,2396
2018-09-11T12:37:15.951Z,2368
2018-09-11T12:38:17.350Z,2276
2018-09-11T12:39:18.743Z,2176
2018-09-11T12:40:20.141Z,2008
2018-09-11T12:41:21.535Z,1868
2018-09-11T12:42:22.942Z,1912
2018-09-11T12:43:24.329Z,1656
2018-09-11T12:44:25.777Z,1876
2018-09-11T12:45:27.201Z,1844
2018-09-11T12:46:28.801Z,1612
2018-09-11T12:47:30.250Z,2108
2018-09-11T12:48:31.420Z,2168
2018-09-11T12:49:32.746Z,2076
2018-09-11T12:50:34.139Z,2064
2018-09-11T12:51:35.535Z,2004
2018-09-11T12:52:36.979Z,1936
2018-09-11T12:53:38.323Z,2012
2018-09-11T12:54:39.718Z,1908
2018-09-11T12:55:41.159Z,1900
2018-09-11T12:56:42.548Z,1912
2018-09-11T12:57:43.961Z,1788
2018-09-11T12:58:45.345Z,1640
2018-09-11T12:59:46.737Z,1592
2018-09-11T13:00:48.148Z,1536
2018-09-11T13:01:49.536Z,1508
2018-09-11T13:02:50.933Z,1424
2018-09-11T13:03:52.331Z,1320
2018-09-11T13:04:53.719Z,1288
2018-09-11T13:05:55.127Z,1272
2018-09-11T13:06:56.520Z,1276
2018-09-11T13:07:57.925Z,1260
2018-09-11T13:09:00.069Z,1296
2018-09-11T13:10:01.422Z,1316
2018-09-11T13:11:02.817Z,1392
2018-09-11T13:12:04.203Z,1316
2018-09-11T13:13:05.604Z,1336
2018-09-11T13:14:07.008Z,1148
2018-09-11T13:15:08.413Z,1132
2018-09-11T13:16:09.789Z,1080
2018-09-11T13:17:11.199Z,1200
2018-09-11T13:18:12.603Z,1476
2018-09-11T13:19:13.991Z,1760
2018-09-11T13:20:15.383Z,1588
2018-09-11T13:21:16.788Z,1492
2018-09-11T13:22:18.176Z,1312
2018-09-11T13:23:19.591Z,1580
2018-09-11T13:24:20.996Z,1392
2018-09-11T13:25:22.417Z,1836
2018-09-11T13:26:23.782Z,1940
2018-09-11T13:27:25.201Z,1620
2018-09-11T13:28:26.604Z,1460
2018-09-11T13:29:28.023Z,1428
2018-09-11T13:30:29.420Z,1452
2018-09-11T13:31:30.820Z,1484
2018-09-11T13:32:32.229Z,1496
2018-09-11T13:33:33.611Z,1480
2018-09-11T13:34:35.004Z,1844
2018-09-11T13:35:36.411Z,1836
2018-09-11T13:36:37.811Z,1988
2018-09-11T13:37:39.214Z,2216
2018-09-11T13:38:40.628Z,2212
2018-09-11T13:39:42.066Z,2152
2018-09-11T13:40:43.458Z,2052
2018-09-11T13:41:44.850Z,2488
2018-09-11T13:42:46.251Z,2176
2018-09-11T13:43:47.644Z,1924
2018-09-11T13:44:49.053Z,1684
2018-09-11T13:45:50.452Z,1432
2018-09-11T13:46:51.907Z,1316
2018-09-11T13:47:53.258Z,1372
2018-09-11T13:48:54.652Z,1348
2018-09-11T13:49:56.071Z,1284
2018-09-11T13:50:57.454Z,1436
2018-09-11T13:51:58.924Z,1440
2018-09-11T13:53:00.371Z,1284
2018-09-11T13:54:01.667Z,1216
2018-09-11T13:55:03.061Z,1328
2018-09-11T13:56:05.210Z,1296
2018-09-11T13:57:06.546Z,1032
2018-09-11T13:58:07.965Z,936
2018-09-11T13:59:09.319Z,940
2018-09-11T14:00:10.719Z,992
2018-09-11T14:01:12.118Z,1148
2018-09-11T14:02:13.519Z,1160
2018-09-11T14:03:14.926Z,1228
2018-09-11T14:04:16.337Z,1168
2018-09-11T14:05:17.735Z,1172
2018-09-11T14:06:19.137Z,1548
2018-09-11T14:07:20.544Z,1368
2018-09-11T14:08:21.940Z,1268
2018-09-11T14:09:23.331Z,1304
2018-09-11T14:10:24.754Z,1300
2018-09-11T14:11:26.148Z,1360
2018-09-11T14:12:27.537Z,1444
2018-09-11T14:13:28.933Z,1564
2018-09-11T14:14:30.322Z,1576